Timeline UpdatesTrip UpdatesNews PostsPvt Posts♥♥Travel TipsAdmin PostsConv PostsFollowed PostsChat RequestsBlog PostsPNR Posts

Disclaimer
Search
 
 
Wed Nov 26, 2014 10:52:51 ISTHomeTrainsΣChainsAtlasPNRForumGalleryNewsFAQTripsMembersLoginFeedback
No Recent News for this Train
Other Trains in the News **new
Latest...
..
Mon Feb 24, 2014 (09:24PM)
⇐ Return Journey: Train# 13201

13202/Mumbai LTT - Rajendra Nagar Patna Express

Time-Table HAS CHANGED.
Sep 01 2014 (3:52PM)
Change Departure Station:
Change Arrival Station:
Post a Train Travel TipPost a Train Travel Tip **new
Post a Comment/Question/Picture/VideoPost a Comment/Question/Picture/Video
Inaugural Run
Thu Jan 01, 1998
Pantry/Catering
✓ Pantry Car Avbl
✓ Catering Avbl
RSA - Rake Sharing
NO RSA
Rake/Coach Composition
LOCO-SLR-GS-GS-A1-AB1-B2-B1-PC-S12-S11-S10-S9-S8-S7-S6-S5-S4-S3-S2-S1-GS-GS-GS-SLR
Loco
LTT-ET:-ET/BSL WAP-4 ET-COI :-ET WDP 4B COI-RJPB :-MGS WAP 4/CNB WAG 7
News    PNR    Forum    Time-Table    Availability    Fare Chart    Map    Arr/Dep History    Trips    Gallery    ΣChains    X/O    Timeline    
Travel Time: 24h 17m    42 halts    Distance: 1037 km    Avg Speed: 42 km/hr
Type: Mail/Express
Zone: ECR/East Central
Departs @ 09:38
Platform# ???
SMTWTFS
Harda/HD 
Arrives @ 09:55 +1 night
Platform# ???
SMTWTFS
Rajendra Nagar Bihar/RJPB 

42 halts. 147 intermediate Stations between Harda and Rajendra Nagar Bihar

Show ALL intermediate Stations  Show Old Time-Table

#TrkCodeStation NameX/OArrivesAvgDepartsAvgHaltPFDay#KmSpeedElevZoneAddress
1/==/LTTMumbai Lokmanya Tilak Terminus (5)  -22:15-51-657.1477mCRMumbai - 400089, Maharashtra
2/==/KYNKalyan Junction (8)  22:55 23:02-23:00 23:05-5 3m41-620.44910mCRKalyan 421301, Maharashtra
3/==/IGPIgatpuri (4)X  00:45-00:50-5m--2-538.663589mCRIgatpuri 422403, Maharashtra
4/==/DVLDevlali (3)X  01:33-01:35-2m12-493.734561mCRDist. Nashik 422401, Maharashtra
5/==/NKNasik Road (3)X  01:45-01:50-5m22-487.967563mCRNashik 422101, Maharashtra
6/==/NRNiphad (3)X  02:18-02:20-2m--2-456.578550mCRNashik, Maharashtra
7/==/LSLasalgaon (3)X  02:33-02:35-2m--2-439.774592mCRLasalgaon, Maharashtra
8/==/MMRManmad Junction (6)  03:00 02:55-03:05 03:00-5m22-415.285580mCRManmad 423104, Maharashtra
9/==/NGNNandgaon (3)X  03:22 03:18-03:25 03:20-3 2m--2-389.890476mCRNandgaon, Maharashtra
10/==/CSNChalisgaon Junction (3)X  03:53 03:48-03:55 03:50-2m--2-347.796352mCRChalisgaon 424101, Maharashtra
11/==/JLJalgaon Junction (4)X  04:53 04:48-04:55 04:50-2m32-255.158213mCRJalgaon 425001, Maharashtra
12/==/BSLBhusaval Junction (8)X  05:20 05:15-05:30 05:25-10m52-231.073208mCRBhusaval 425201, Maharashtra
13/==/RVRaver (2)  06:03 05:53-06:05 05:55-2m--2-196.781242mCRJalgaon, Maharashtra
14/==/BAUBurhanpur (2)  06:23 06:10-06:25 06:12-2m22-176.575269mCRBurhanpur, Madhya Pradesh
15/==/NPNRNepanagar (2)O  06:53 06:33-06:55 06:35-2m--2-150.330289mCRState Highway 27, Madhya Pradesh
16/==/KNWKhandwa Junction (5)XO  08:10 08:00-08:15 08:05-5m--2-107.641310mCRKhandwa, Madhya Pradesh
17/==/TLVTalvadiya (2)  08:28-08:30-2m--2-91.999308mWCRKhandwa, Madhya Pradesh
18/==/CAERChhanera (2)X  08:48-08:50-2m--2-62.280283mWCRChhanera, Madhya Pradesh
19/==/KKNKhirkiya (2)X  09:13-09:15-2m22-31.590281mWCRSH 15, Madhya Pradesh
20/==/HDHarda (3)»X  09:36-09:38-2m--20.071289mWCRHarda, Madhya Pradesh
21/==/TBNTimarni (2)XO  09:48 09:50-09:50 09:52-2m--214.153308mWCRTimarni, Madhya Pradesh
22/==/BPFBanapura (2)X  10:24-10:26-2m--242.331314mWCRBanapura, Madhya Pradesh
23/==/ETItarsi Junction (7)X11:30-11:40-10m--275.872329mWCRItarsi 461111, Madhya Pradesh
24|-=|BGTABagratawa (2)XO  12:02-12:04-2m22102.236338mWCRBagra Tawa, Madhya Pradesh
25|==|SGPSohagpur (2)  12:43-12:45-2m22125.362340mWCRSohagpur, Madhya Pradesh
26|==|PPIPipariya (3)  13:02-13:04-2m12143.083338mWCRPiparia, Madhya Pradesh
27|==|BKHBankhedi (2)X  13:18-13:20-2m22162.574351mWCRBankheri, Madhya Pradesh
28|==|SCKRSalichauka Road (2)X  13:31 13:33-13:33 13:35-2m--2178.593355mWCRGadarwara, Madhya Pradesh
29|==|GARGadarwara (2)XO  13:44-13:46-2m12192.486352mWCRNarsinghpur, Madhya Pradesh
30|==|KYKareli (2)  14:06-14:08-2m12220.948361mWCRKareli, Madhya Pradesh
31|==|NUNarsinghpur (2)X  14:28-14:30-2m12236.878365mWCRNarsimhapur, Madhya Pradesh
32|==|SRIDShridham (3)  14:54-14:56-2m22267.978373mWCRShridham, Madhya Pradesh
33|==|MMLMadan Mahal (3)  15:34-15:36-2m22317.510428mWCRJabalpur, Madhya Pradesh
34|==|JBPJabalpur Junction (4)X  15:45 15:55-15:55 16:05-10m32320.883416mWCRJabalpur, Madhya Pradesh
35|==|SHRSihora Road (2)X  16:27 16:33-16:29 16:35-2m--2359.463388mWCRJabalpur, Madhya Pradesh
36|==%KTEKatni Junction (6)X  17:10 17:25-17:15 17:30-5m--2411.6130387mWCRKatni, Madhya Pradesh
37%==%JKEJukehi (3)  17:30 17:38-17:32 17:40-2m--2429.098402mWCRJukehi, Madhya Pradesh
38%==%MYRMaihar (3)  18:03 18:08-18:05 18:10-2m--2474.643353mWCRMaihar Railway Station, Madhya Pradesh
39%==%STASatna Junction (3)X  18:50 19:00-19:00 19:10-10m22510.093322mWCRSatna, Madhya Pradesh
40%==%JTWJaitwar (2)  19:17 19:23-19:19 19:25-2m--2530.173321mWCRJaitwar, Madhya Pradesh
41%==%MJGMajhagawanX  19:42-19:44-2m--2550.827343mWCRMajhgawa, Madhya Pradesh
42%==%MKPManikpur Junction (4)X  21:15 21:05-21:20 21:10-5m--2587.775250mNCRManikpur, Uttar Pradesh
43%==%DBRDabhaura (2)X  21:38 21:28-21:40 21:30-2m--2610.272201mNCRDabhaura, Uttar Pradesh
44%==%SRJShankargarh (3)  22:07 21:57-22:09 21:59-2m--2642.732132mNCRShankargarh, Uttar Pradesh
45|==|COIChheoki Junction (3)O  23:10-23:30-20m--2680.02596mNCRDist.-Allahabad, Uttar Pradesh
46/==/MNFManda RoadX  01:20-01:22-2m--3725.67593mNCRNH 76, Uttar Pradesh
47/==/BDLVindhyachal (3)X  01:44-01:46-2m23753.12688mNCRMirzapur, Uttar Pradesh
48/==/MZPMirzapur (3)X  02:03-02:05-2m--3760.46388mNCRMirzapur, Uttar Pradesh
49/==/CARChunar Junction (5)XO  02:38 02:35-02:40-2 5m33791.73085mNCRChunar Junction, Uttar Pradesh
50/--/ARWAhraura Road (4)XO  03:16-03:18-2m--3809.72285mNCRDist. Mirzapur - 231305, Uttar Pradesh
51/==/MGSMughal Sarai Junction (8)X  03:55-04:10-15m--3823.56583mECRDistt: Chandauli Pin 232101, Uttar Pradesh
52/==/ZNAZamania (2)  04:46 04:51-04:48 04:53-2m--3867.76777mECRGhazipur, Uttar Pradesh
53/==/DLNDildarnagar Junction (2)X  05:01 05:05-05:03 05:07-2m--3881.28072mECRDildarnagar, Uttar Pradesh
54/==/GMRGahmar (2)  05:12 05:19-05:14 05:20-2 1m--3897.26968mECRDistt: Ghazipur, Uttar Pradesh
55/==/CSAChausa (2)  05:21 05:28-05:23 05:29-2 1m--3906.46068mECRState Highway 14, Bihar
56/==/BXRBuxar (3)X  05:35 05:40-05:37 05:42-2m--3917.43367mECRBuxar, Bihar
57/==/BEABihiya (3)  07:07-07:09-2m--3964.52967mECRBehea, Bihar
58/==/ARAAra Junction (3)  07:53-07:55-2m--3985.93463mECRDistt: Bhojpur Ph 06182-233411, Bihar
59/==/BTABihta (2)X  08:34-08:36-2m--31008.14262mECRDistt: Patna, Bihar
60/==/SDESadisopur (2)  08:42-08:44-2m--31012.34164mECRSadisopur, Bihar
61/==/DNRDanapur (5)X09:03-09:05-2m--31025.42358mECRKhagaul, Bihar
62/==/PNBEPatna Junction (10)  09:30-09:40-10m331034.81057mECRPatna 800001, Bihar
63/==/RJPBRajendra Nagar Bihar (4)•  09:55----31037.4-55mECRPatna 800001, Bihar
Scroll to Top
Scroll to Bottom